createdAt,value
2018-02-21T00:00:04.523Z,122.00
2018-02-21T00:02:33.443Z,103.63
2018-02-21T00:05:01.551Z,119.80
2018-02-21T00:07:29.615Z,85.90
2018-02-21T00:09:57.800Z,104.77
2018-02-21T00:12:25.835Z,120.80
2018-02-21T00:14:53.883Z,102.97
2018-02-21T00:17:22.795Z,105.30
2018-02-21T00:19:50.840Z,106.27
2018-02-21T00:22:19.619Z,127.07
2018-02-21T00:24:47.999Z,108.80
2018-02-21T00:27:16.055Z,104.50
2018-02-21T00:29:44.098Z,119.23
2018-02-21T00:32:12.275Z,93.60
2018-02-21T00:34:40.379Z,94.60
2018-02-21T00:37:08.419Z,111.67
2018-02-21T00:39:36.590Z,89.67
2018-02-21T00:42:04.645Z,109.13
2018-02-21T00:44:32.760Z,108.40
2018-02-21T00:47:00.945Z,105.60
2018-02-21T00:49:28.995Z,99.23
2018-02-21T00:51:57.038Z,91.77
2018-02-21T00:54:25.431Z,114.87
2018-02-21T00:56:53.481Z,100.33
2018-02-21T00:59:22.263Z,109.40
2018-02-21T01:01:51.174Z,120.47
2018-02-21T01:04:19.286Z,97.03
2018-02-21T01:06:47.412Z,88.57
2018-02-21T01:09:16.348Z,108.50
2018-02-21T01:11:44.392Z,109.77
2018-02-21T01:14:12.500Z,118.33
2018-02-21T01:16:40.667Z,92.93
2018-02-21T01:19:08.711Z,101.67
2018-02-21T01:21:36.747Z,103.70
2018-02-21T01:24:05.036Z,106.30
2018-02-21T01:26:33.955Z,104.97
2018-02-21T01:29:01.995Z,106.33
2018-02-21T01:31:30.911Z,116.60
2018-02-21T01:33:59.032Z,102.43
2018-02-21T01:36:27.081Z,83.07
2018-02-21T01:38:55.263Z,98.40
2018-02-21T01:41:23.311Z,101.47
2018-02-21T01:43:51.418Z,94.80
2018-02-21T01:46:19.600Z,105.87
2018-02-21T01:48:47.653Z,84.90
2018-02-21T01:51:15.742Z,89.60
2018-02-21T01:53:44.040Z,120.27
2018-02-21T01:56:12.094Z,99.27
2018-02-21T01:58:40.148Z,107.67
2018-02-21T02:01:08.325Z,97.83
2018-02-21T02:03:36.363Z,110.07
2018-02-21T02:06:05.156Z,101.43
2018-02-21T02:08:34.232Z,104.47
2018-02-21T02:11:03.023Z,108.87
2018-02-21T02:13:31.802Z,105.43
2018-02-21T02:15:59.976Z,115.87
2018-02-21T02:18:28.023Z,101.40
2018-02-21T02:20:56.108Z,101.60
2018-02-21T02:23:24.403Z,117.97
2018-02-21T02:25:52.557Z,85.73
2018-02-21T02:28:20.735Z,108.23
2018-02-21T02:30:49.028Z,92.83
2018-02-21T02:33:17.323Z,94.73
2018-02-21T02:35:46.212Z,95.23
2018-02-21T02:38:26.700Z,112.23
2018-02-21T02:40:54.735Z,94.83
2018-02-21T02:43:22.884Z,91.67
2018-02-21T02:45:51.055Z,118.07
2018-02-21T02:48:19.108Z,94.07
2018-02-21T02:50:47.155Z,113.13
2018-02-21T02:53:16.072Z,98.03
2018-02-21T02:55:44.106Z,92.70
2018-02-21T02:58:12.903Z,105.43
2018-02-21T03:00:41.833Z,90.77
2018-02-21T03:03:09.878Z,102.63
2018-02-21T03:05:38.668Z,95.77
2018-02-21T03:08:12.060Z,87.50
2018-02-21T03:10:40.267Z,119.67
2018-02-21T03:13:08.319Z,90.60
2018-02-21T03:15:36.559Z,99.47
2018-02-21T03:18:04.603Z,97.50
2018-02-21T03:20:32.652Z,107.73
2018-02-21T03:23:01.228Z,82.10
2018-02-21T03:25:29.275Z,97.90
2018-02-21T03:27:58.067Z,86.43
2018-02-21T03:30:27.268Z,93.47
2018-02-21T03:32:56.459Z,101.97
2018-02-21T03:35:25.716Z,111.77
2018-02-21T03:37:54.284Z,82.00
2018-02-21T03:40:23.517Z,91.80
2018-02-21T03:42:51.950Z,94.03
2018-02-21T03:45:21.531Z,94.90
2018-02-21T03:47:50.488Z,95.97
2018-02-21T03:50:19.103Z,99.63
2018-02-21T03:52:47.280Z,117.43
2018-02-21T03:55:15.487Z,99.43
2018-02-21T03:57:44.047Z,86.23
2018-02-21T04:00:13.079Z,91.43
2018-02-21T04:02:41.119Z,106.03
2018-02-21T04:05:10.294Z,115.17
2018-02-21T04:07:38.867Z,87.40
2018-02-21T04:10:07.324Z,101.67
2018-02-21T04:12:36.136Z,97.57
2018-02-21T04:15:05.679Z,116.43
2018-02-21T04:17:36.059Z,95.43
2018-02-21T04:20:04.524Z,123.30
2018-02-21T04:22:33.091Z,109.57
2018-02-21T04:25:02.491Z,110.67
2018-02-21T04:27:31.659Z,100.27
2018-02-21T04:30:00.014Z,100.07
2018-02-21T04:32:29.142Z,100.13
2018-02-21T04:34:57.188Z,97.27
2018-02-21T04:37:25.959Z,101.90
2018-02-21T04:39:55.176Z,92.40
2018-02-21T04:42:23.611Z,108.37
2018-02-21T04:44:53.114Z,98.57
2018-02-21T04:47:22.459Z,94.57
2018-02-21T04:49:51.191Z,100.73
2018-02-21T04:52:20.515Z,116.70
2018-02-21T04:54:54.836Z,102.47
2018-02-21T05:22:54.945Z,99.77
2018-02-21T05:25:22.988Z,97.97
2018-02-21T05:27:51.775Z,84.07
2018-02-21T05:30:20.691Z,83.03
2018-02-21T05:32:49.045Z,86.83
2018-02-21T05:35:17.196Z,76.20
2018-02-21T05:37:45.374Z,94.63
2018-02-21T05:40:13.420Z,74.40
2018-02-21T05:42:41.471Z,96.33
2018-02-21T05:45:09.644Z,88.43
2018-02-21T05:47:37.684Z,86.63
2018-02-21T05:50:05.732Z,93.77
2018-02-21T05:52:33.898Z,84.93
2018-02-21T05:55:01.931Z,88.20
2018-02-21T05:57:29.975Z,84.20
2018-02-21T05:59:58.161Z,70.63
2018-02-21T06:02:26.936Z,80.23
2018-02-21T06:04:55.101Z,77.97
2018-02-21T06:07:23.272Z,76.77
2018-02-21T06:09:51.308Z,76.70
2018-02-21T06:12:19.363Z,71.10
2018-02-21T06:14:47.607Z,80.97
2018-02-21T06:17:15.651Z,82.27
2018-02-21T06:19:43.692Z,72.70
2018-02-21T06:22:11.863Z,79.70
2018-02-21T06:24:39.906Z,75.63
2018-02-21T06:27:07.955Z,88.27
2018-02-21T06:29:36.187Z,69.77
2018-02-21T06:32:04.259Z,68.13
2018-02-21T06:34:32.435Z,80.87
2018-02-21T06:37:00.603Z,77.83
2018-02-21T06:39:28.642Z,78.47
2018-02-21T06:41:56.911Z,63.30
2018-02-21T06:44:25.207Z,76.53
2018-02-21T06:46:53.999Z,82.67
2018-02-21T06:49:22.779Z,82.60
2018-02-21T06:51:50.946Z,76.83
2018-02-21T06:54:19.103Z,83.63
2018-02-21T06:56:47.153Z,68.97
2018-02-21T06:59:15.325Z,82.80
2018-02-21T07:01:43.375Z,77.63
2018-02-21T07:04:12.211Z,73.73
2018-02-21T07:06:40.543Z,73.87
2018-02-21T07:09:09.323Z,83.13
2018-02-21T07:11:38.099Z,80.57
2018-02-21T07:14:06.383Z,78.27
2018-02-21T07:16:35.163Z,85.50
2018-02-21T07:19:03.220Z,96.80
2018-02-21T07:21:31.388Z,90.23
2018-02-21T07:23:59.439Z,76.40
2018-02-21T07:26:27.627Z,79.37
2018-02-21T07:28:55.807Z,76.90
2018-02-21T07:31:23.859Z,73.60
2018-02-21T07:33:51.951Z,63.20
2018-02-21T07:36:20.260Z,53.50
2018-02-21T07:38:48.303Z,63.30
2018-02-21T07:41:16.356Z,75.97
2018-02-21T07:43:44.523Z,67.20
2018-02-21T07:46:12.560Z,66.90
2018-02-21T07:48:41.339Z,62.53
2018-02-21T07:51:09.516Z,67.67
2018-02-21T07:53:41.247Z,63.20
2018-02-21T07:56:09.289Z,64.20
2018-02-21T07:58:37.464Z,62.87
2018-02-21T08:01:05.496Z,71.77
2018-02-21T08:03:34.355Z,82.90
2018-02-21T08:06:02.619Z,61.77
2018-02-21T08:08:30.688Z,60.90
2018-02-21T08:10:58.734Z,66.43
2018-02-21T08:13:26.918Z,75.13
2018-02-21T08:15:54.980Z,73.90
2018-02-21T08:18:23.780Z,77.03
2018-02-21T08:20:51.969Z,91.90
2018-02-21T08:23:20.023Z,77.27
2018-02-21T08:25:48.073Z,81.10
2018-02-21T08:28:17.053Z,66.10
2018-02-21T08:30:45.964Z,68.50
2018-02-21T08:33:14.835Z,69.40
2018-02-21T08:35:43.012Z,59.60
2018-02-21T08:38:11.187Z,67.37
2018-02-21T08:40:39.242Z,64.43
2018-02-21T08:43:07.439Z,64.30
2018-02-21T08:45:35.482Z,61.47
2018-02-21T08:48:03.575Z,71.23
2018-02-21T08:50:31.747Z,61.97
2018-02-21T08:52:59.791Z,63.33
2018-02-21T08:55:27.831Z,64.00
2018-02-21T08:57:56.781Z,76.93
2018-02-21T09:00:24.848Z,77.77
2018-02-21T09:02:52.899Z,64.27
2018-02-21T09:05:21.084Z,77.03
2018-02-21T09:07:49.144Z,67.30
2018-02-21T09:10:17.183Z,64.67
2018-02-21T09:12:46.131Z,55.00
2018-02-21T09:15:14.168Z,71.53
2018-02-21T09:17:42.220Z,68.23
2018-02-21T09:20:11.135Z,71.37
2018-02-21T09:22:39.179Z,66.23
2018-02-21T09:25:07.971Z,69.30
2018-02-21T09:27:36.888Z,70.20
2018-02-21T09:30:04.969Z,88.40
2018-02-21T09:32:33.071Z,83.47
2018-02-21T09:35:01.235Z,85.93
2018-02-21T09:37:29.275Z,71.60
2018-02-21T09:39:57.563Z,62.70
2018-02-21T09:42:25.736Z,74.87
2018-02-21T09:44:53.799Z,75.43
2018-02-21T09:47:21.985Z,77.67
2018-02-21T09:49:50.195Z,73.03
2018-02-21T09:52:18.251Z,63.83
2018-02-21T09:54:46.339Z,56.80
2018-02-21T09:57:14.511Z,64.43
2018-02-21T09:59:42.567Z,54.00
2018-02-21T10:02:10.603Z,66.87
2018-02-21T10:04:39.572Z,66.03
2018-02-21T10:07:07.643Z,57.43
2018-02-21T10:09:35.850Z,55.07
2018-02-21T10:12:04.756Z,74.33
2018-02-21T10:14:32.863Z,55.90
2018-02-21T10:17:00.922Z,61.23
2018-02-21T10:19:29.096Z,65.33
2018-02-21T10:21:57.399Z,69.97
2018-02-21T10:24:25.465Z,79.77
2018-02-21T10:26:53.632Z,71.30
2018-02-21T10:29:21.685Z,84.80
2018-02-21T10:31:49.808Z,76.97
2018-02-21T10:34:18.082Z,70.80
2018-02-21T10:36:46.127Z,60.90
2018-02-21T10:39:14.163Z,75.60
2018-02-21T10:41:42.575Z,93.03
2018-02-21T10:44:10.667Z,77.90
2018-02-21T10:46:38.717Z,84.90
2018-02-21T10:49:06.889Z,87.80
2018-02-21T10:51:34.951Z,92.07
2018-02-21T10:54:03.256Z,87.80
2018-02-21T10:56:31.845Z,81.63
2018-02-21T10:58:59.895Z,100.23
2018-02-21T11:01:28.552Z,81.20
2018-02-21T11:03:57.519Z,74.90
2018-02-21T11:06:25.564Z,115.03
2018-02-21T11:08:53.619Z,90.10
2018-02-21T11:11:21.816Z,83.87
2018-02-21T11:13:49.886Z,111.60
2018-02-21T11:16:17.937Z,106.83
2018-02-21T11:18:46.121Z,81.03
2018-02-21T11:21:14.171Z,104.93
2018-02-21T11:23:42.653Z,103.47
2018-02-21T11:26:10.838Z,105.60
2018-02-21T11:28:38.879Z,110.60
2018-02-21T11:31:07.827Z,97.10
2018-02-21T11:33:36.044Z,91.47
2018-02-21T11:36:04.831Z,94.97
2018-02-21T11:38:33.612Z,92.50
2018-02-21T11:41:01.787Z,87.87
2018-02-21T11:43:30.050Z,94.63
2018-02-21T11:45:58.094Z,71.43
2018-02-21T11:48:27.131Z,106.43
2018-02-21T11:50:55.230Z,91.57
2018-02-21T11:53:24.159Z,92.30
2018-02-21T11:55:52.339Z,99.43
2018-02-21T11:58:20.380Z,117.70
2018-02-21T12:00:48.428Z,108.17
2018-02-21T12:03:17.344Z,90.20
2018-02-21T12:05:45.455Z,80.17
2018-02-21T12:08:13.514Z,98.30
2018-02-21T12:10:41.700Z,91.23
2018-02-21T12:13:09.780Z,110.80
2018-02-21T12:15:38.773Z,90.53
2018-02-21T12:18:06.949Z,68.77
2018-02-21T12:20:35.159Z,90.90
2018-02-21T12:23:03.947Z,114.13
2018-02-21T12:25:32.867Z,99.00
2018-02-21T12:28:00.911Z,96.40
2018-02-21T12:30:29.871Z,108.10
2018-02-21T12:33:00.024Z,84.50
2018-02-21T12:35:28.844Z,111.60
2018-02-21T12:37:56.887Z,91.67
2018-02-21T12:40:31.387Z,93.73
2018-02-21T12:42:59.433Z,77.40
2018-02-21T12:45:27.623Z,98.97
2018-02-21T12:47:56.826Z,82.40
2018-02-21T12:50:24.997Z,93.90
2018-02-21T12:52:53.053Z,76.80
2018-02-21T12:55:21.336Z,74.83
2018-02-21T12:57:49.386Z,88.93
2018-02-21T13:00:17.519Z,77.20
2018-02-21T13:02:45.708Z,78.73
2018-02-21T13:05:15.655Z,85.03
2018-02-21T13:07:43.716Z,89.90
2018-02-21T13:10:13.487Z,90.83
2018-02-21T13:12:42.418Z,81.03
2018-02-21T13:15:11.212Z,80.07
2018-02-21T13:17:41.412Z,81.07
2018-02-21T13:20:09.523Z,87.37
2018-02-21T13:22:37.568Z,74.67
2018-02-21T13:25:06.666Z,86.47
2018-02-21T13:27:36.703Z,82.43
2018-02-21T13:30:04.808Z,95.83
2018-02-21T13:32:33.944Z,86.13
2018-02-21T13:35:02.885Z,85.73
2018-02-21T13:37:30.943Z,88.50
2018-02-21T13:39:59.115Z,71.17
2018-02-21T13:42:27.155Z,94.20
2018-02-21T13:44:56.211Z,89.77
2018-02-21T13:47:24.532Z,92.13
2018-02-21T13:49:52.587Z,80.83
2018-02-21T13:52:20.667Z,109.60
2018-02-21T13:54:50.499Z,87.97
2018-02-21T13:57:20.060Z,99.00
2018-02-21T13:59:48.104Z,81.77
2018-02-21T14:02:17.206Z,84.93
2018-02-21T14:04:45.399Z,95.07
2018-02-21T14:07:13.599Z,102.10
2018-02-21T14:09:41.947Z,104.27
2018-02-21T14:12:10.057Z,76.47
2018-02-21T14:14:38.307Z,90.03
2018-02-21T14:17:06.592Z,94.97
2018-02-21T14:19:34.727Z,80.37
2018-02-21T14:22:02.807Z,87.73
2018-02-21T14:24:31.978Z,63.93
2018-02-21T14:27:00.965Z,97.17
2018-02-21T14:29:29.355Z,92.93
2018-02-21T14:31:58.267Z,82.60
2018-02-21T14:34:26.375Z,101.80
2018-02-21T14:36:54.414Z,87.83
2018-02-21T14:39:22.604Z,80.83
2018-02-21T14:41:50.647Z,97.87
2018-02-21T14:44:19.491Z,77.97
2018-02-21T14:46:47.668Z,92.67
2018-02-21T14:49:15.853Z,86.00
2018-02-21T14:51:43.912Z,95.37
2018-02-21T14:54:12.986Z,79.97
2018-02-21T14:56:41.088Z,80.07
2018-02-21T14:59:09.955Z,103.13
2018-02-21T15:01:38.139Z,95.47
2018-02-21T15:04:06.265Z,100.50
2018-02-21T15:06:37.539Z,85.80
2018-02-21T15:09:09.219Z,79.13
2018-02-21T15:11:37.869Z,82.10
2018-02-21T15:14:08.385Z,90.33
2018-02-21T15:16:38.237Z,102.20
2018-02-21T15:19:10.040Z,93.53
2018-02-21T15:21:38.952Z,79.97
2018-02-21T15:24:07.173Z,93.30
2018-02-21T15:26:35.347Z,92.27
2018-02-21T15:29:04.255Z,95.07
2018-02-21T15:31:34.814Z,78.93
2018-02-21T15:34:03.199Z,100.97
2018-02-21T15:36:31.259Z,82.00
2018-02-21T15:39:07.387Z,95.70
2018-02-21T15:41:35.610Z,96.43
2018-02-21T15:44:03.872Z,91.27
2018-02-21T15:46:35.255Z,83.27
2018-02-21T15:49:03.491Z,80.43
2018-02-21T15:51:32.595Z,93.57
2018-02-21T15:54:00.775Z,98.63
2018-02-21T15:56:28.835Z,87.77
2018-02-21T15:58:56.899Z,88.80
2018-02-21T16:01:25.084Z,97.43
2018-02-21T16:03:53.163Z,88.93
2018-02-21T16:06:22.138Z,77.40
2018-02-21T16:08:50.314Z,98.17
2018-02-21T16:11:18.352Z,103.87
2018-02-21T16:13:47.219Z,88.87
2018-02-21T16:16:18.458Z,80.97
2018-02-21T16:18:51.203Z,91.90
2018-02-21T16:21:19.275Z,87.37
2018-02-21T16:23:47.322Z,109.40
2018-02-21T16:26:15.431Z,93.87
2018-02-21T16:28:43.599Z,86.70
2018-02-21T16:31:11.644Z,118.20
2018-02-21T16:33:48.888Z,96.97
2018-02-21T16:36:20.419Z,95.93
2018-02-21T16:38:48.502Z,99.47
2018-02-21T16:41:16.545Z,98.27
2018-02-21T16:43:44.648Z,96.07
2018-02-21T16:46:13.004Z,100.10
2018-02-21T16:48:41.168Z,121.00
2018-02-21T16:51:09.580Z,120.00
2018-02-21T16:53:38.714Z,96.23
2018-02-21T16:56:08.415Z,104.73
2018-02-21T16:58:36.455Z,96.73
2018-02-21T17:01:04.643Z,93.83
2018-02-21T17:16:21.327Z,95.50
2018-02-21T17:18:49.420Z,110.07
2018-02-21T17:21:17.491Z,102.57
2018-02-21T17:23:45.695Z,94.13
2018-02-21T17:26:14.661Z,101.50
2018-02-21T17:28:42.719Z,104.53
2018-02-21T17:31:10.898Z,107.13
2018-02-21T17:33:39.058Z,109.43
2018-02-21T17:36:07.278Z,115.70
2018-02-21T17:38:35.652Z,114.17
2018-02-21T17:41:09.628Z,91.57
2018-02-21T17:43:37.978Z,105.70
2018-02-21T17:46:06.262Z,95.87
2018-02-21T17:48:34.473Z,111.23
2018-02-21T17:51:02.890Z,99.90
2018-02-21T17:53:31.195Z,97.87
2018-02-21T17:55:59.402Z,94.77
2018-02-21T17:58:27.756Z,123.33
2018-02-21T18:00:56.192Z,111.30
2018-02-21T18:03:24.377Z,112.53
2018-02-21T18:05:53.535Z,119.40
2018-02-21T18:08:21.772Z,140.20
2018-02-21T18:10:49.978Z,111.20
2018-02-21T18:13:18.395Z,106.37
2018-02-21T18:15:46.719Z,102.10
2018-02-21T18:18:15.654Z,127.27
2018-02-21T18:20:44.040Z,85.67
2018-02-21T18:23:12.322Z,110.70
2018-02-21T18:25:40.562Z,98.13
2018-02-21T18:28:08.906Z,83.77
2018-02-21T18:30:37.171Z,83.50
2018-02-21T18:33:06.071Z,118.67
2018-02-21T18:35:35.083Z,101.13
2018-02-21T18:38:03.143Z,102.80
2018-02-21T18:40:31.955Z,101.93
2018-02-21T18:43:00.161Z,96.40
2018-02-21T18:45:28.500Z,100.33
2018-02-21T18:47:56.551Z,96.53
2018-02-21T18:50:25.498Z,104.40
2018-02-21T18:52:53.563Z,115.97
2018-02-21T18:55:21.683Z,120.67
2018-02-21T18:57:50.159Z,106.07
2018-02-21T19:00:18.234Z,87.47
2018-02-21T19:02:46.303Z,127.43
2018-02-21T19:05:14.494Z,107.03
2018-02-21T19:07:43.291Z,117.70
2018-02-21T19:10:12.113Z,94.87
2018-02-21T19:12:40.323Z,95.03
2018-02-21T19:15:08.419Z,110.87
2018-02-21T19:17:36.483Z,97.10
2018-02-21T19:20:04.687Z,115.90
2018-02-21T19:22:33.490Z,100.90
2018-02-21T19:25:01.552Z,113.87
2018-02-21T19:27:30.507Z,103.70
2018-02-21T19:29:58.571Z,114.37
2018-02-21T19:32:26.623Z,109.93
2018-02-21T19:34:54.814Z,95.13
2018-02-21T19:37:22.871Z,104.57
2018-02-21T19:39:50.944Z,102.60
2018-02-21T19:42:19.136Z,115.93
2018-02-21T19:44:47.236Z,122.93
2018-02-21T19:47:15.316Z,103.43
2018-02-21T19:49:44.248Z,79.30
2018-02-21T19:52:12.306Z,113.47
2018-02-21T19:54:40.447Z,111.57
2018-02-21T19:57:08.655Z,106.83
2018-02-21T19:59:36.845Z,122.23
2018-02-21T20:02:04.948Z,103.67
2018-02-21T20:04:33.179Z,102.20
2018-02-21T20:07:01.239Z,98.57
2018-02-21T20:09:30.064Z,108.77
2018-02-21T20:11:58.268Z,134.33
2018-02-21T20:14:26.460Z,112.87
2018-02-21T20:16:54.539Z,97.27
2018-02-21T20:19:23.488Z,127.93
2018-02-21T20:21:51.559Z,112.30
2018-02-21T20:24:19.732Z,133.00
2018-02-21T20:26:47.931Z,118.27
2018-02-21T20:29:15.995Z,102.67
2018-02-21T20:31:44.058Z,104.30
2018-02-21T20:34:12.292Z,116.43
2018-02-21T20:36:41.087Z,112.30
2018-02-21T20:39:09.915Z,140.17
2018-02-21T20:41:38.108Z,138.87
2018-02-21T20:44:06.191Z,130.80
2018-02-21T20:46:34.251Z,145.37
2018-02-21T20:49:02.448Z,124.50
2018-02-21T20:51:30.518Z,111.47
2018-02-21T20:53:58.622Z,120.00
2018-02-21T20:56:27.603Z,107.70
2018-02-21T20:58:56.390Z,119.97
2018-02-21T21:01:25.326Z,114.77
2018-02-21T21:03:53.599Z,119.97
2018-02-21T21:06:21.659Z,116.23
2018-02-21T21:08:49.777Z,105.03
2018-02-21T21:11:17.975Z,137.63
2018-02-21T21:13:46.153Z,106.73
2018-02-21T21:16:14.955Z,115.27
2018-02-21T21:18:43.887Z,125.77
2018-02-21T21:21:11.959Z,124.93
2018-02-21T21:23:40.032Z,122.93
2018-02-21T21:26:08.235Z,106.80
2018-02-21T21:28:36.299Z,104.30
2018-02-21T21:31:04.393Z,119.17
2018-02-21T21:33:32.707Z,97.17
2018-02-21T21:36:00.766Z,121.07
2018-02-21T21:38:29.572Z,108.53
2018-02-21T21:40:57.774Z,131.20
2018-02-21T21:43:25.847Z,126.53
2018-02-21T21:45:53.920Z,103.33
2018-02-21T21:48:22.111Z,123.20
2018-02-21T21:50:50.213Z,137.50
2018-02-21T21:53:19.014Z,114.03
2018-02-21T21:55:47.947Z,106.70
2018-02-21T21:58:16.019Z,108.23
2018-02-21T22:00:44.083Z,125.43
2018-02-21T22:03:12.411Z,128.50
2018-02-21T22:05:40.482Z,109.83
2018-02-21T22:08:08.603Z,105.27
2018-02-21T22:10:36.795Z,106.67
2018-02-21T22:13:04.860Z,111.07
2018-02-21T22:15:32.919Z,126.60
2018-02-21T22:18:01.136Z,111.70
2018-02-21T22:20:29.214Z,124.07
2018-02-21T22:22:57.335Z,116.13
2018-02-21T22:25:26.267Z,104.37
2018-02-21T22:27:54.331Z,94.20
2018-02-21T22:30:22.395Z,94.53
2018-02-21T22:32:50.587Z,133.90
2018-02-21T22:35:18.652Z,121.67
2018-02-21T22:37:46.718Z,100.17
2018-02-21T22:40:14.911Z,104.77
2018-02-21T22:42:42.982Z,105.90
2018-02-21T22:45:11.056Z,100.70
2018-02-21T22:47:39.251Z,98.67
2018-02-21T22:50:07.324Z,121.47
2018-02-21T22:52:35.391Z,113.67
2018-02-21T22:55:03.587Z,116.33
2018-02-21T22:57:31.659Z,111.40
2018-02-21T22:59:59.723Z,90.60
2018-02-21T23:02:27.917Z,89.40
2018-02-21T23:04:56.861Z,104.70
2018-02-21T23:07:24.954Z,91.73
2018-02-21T23:09:53.158Z,92.83
2018-02-21T23:12:21.967Z,100.93
2018-02-21T23:14:50.019Z,110.43
2018-02-21T23:17:18.964Z,106.57
2018-02-21T23:19:47.015Z,87.13
2018-02-21T23:22:15.084Z,87.17
2018-02-21T23:24:43.360Z,78.80
2018-02-21T23:27:11.407Z,104.43
2018-02-21T23:29:40.219Z,104.00
2018-02-21T23:32:08.422Z,83.70
2018-02-21T23:34:36.530Z,107.20
2018-02-21T23:37:04.591Z,87.37
2018-02-21T23:39:32.787Z,101.93
2018-02-21T23:42:00.855Z,111.30
2018-02-21T23:44:29.043Z,102.03
2018-02-21T23:46:57.978Z,94.90
2018-02-21T23:49:26.035Z,92.20
2018-02-21T23:51:54.115Z,93.80
2018-02-21T23:54:22.379Z,101.90
2018-02-21T23:56:51.187Z,89.20
2018-02-21T23:59:19.319Z,96.57
